sensor_id;sensor_type;location;lat;lon;timestamp;temperature;humidity
64226;DHT22;50545;56.064;26.178;2023-06-04T00:01:37;7.00;98.50
64226;DHT22;50545;56.064;26.178;2023-06-04T00:04:04;7.00;98.70
64226;DHT22;50545;56.064;26.178;2023-06-04T00:06:31;7.00;98.80
64226;DHT22;50545;56.064;26.178;2023-06-04T00:08:59;6.90;98.90
64226;DHT22;50545;56.064;26.178;2023-06-04T00:11:26;6.90;99.00
64226;DHT22;50545;56.064;26.178;2023-06-04T00:13:53;6.90;99.10
64226;DHT22;50545;56.064;26.178;2023-06-04T00:16:21;6.90;99.10
64226;DHT22;50545;56.064;26.178;2023-06-04T00:18:48;6.90;99.10
64226;DHT22;50545;56.064;26.178;2023-06-04T00:21:15;6.80;99.10
64226;DHT22;50545;56.064;26.178;2023-06-04T00:23:42;6.80;99.20
64226;DHT22;50545;56.064;26.178;2023-06-04T00:26:10;6.80;99.20
64226;DHT22;50545;56.064;26.178;2023-06-04T00:28:37;6.80;99.30
64226;DHT22;50545;56.064;26.178;2023-06-04T00:31:05;6.70;99.40
64226;DHT22;50545;56.064;26.178;2023-06-04T00:33:36;6.70;99.50
64226;DHT22;50545;56.064;26.178;2023-06-04T00:36:03;6.70;99.40
64226;DHT22;50545;56.064;26.178;2023-06-04T00:38:30;6.70;99.60
64226;DHT22;50545;56.064;26.178;2023-06-04T00:40:58;6.60;99.70
64226;DHT22;50545;56.064;26.178;2023-06-04T00:43:25;6.60;99.90
64226;DHT22;50545;56.064;26.178;2023-06-04T00:45:54;6.50;99.90
64226;DHT22;50545;56.064;26.178;2023-06-04T00:48:21;6.50;99.90
64226;DHT22;50545;56.064;26.178;2023-06-04T00:50:49;6.50;99.90
64226;DHT22;50545;56.064;26.178;2023-06-04T00:53:16;6.40;99.90
64226;DHT22;50545;56.064;26.178;2023-06-04T00:55:44;6.40;99.90
64226;DHT22;50545;56.064;26.178;2023-06-04T00:58:11;6.40;99.90
64226;DHT22;50545;56.064;26.178;2023-06-04T01:00:39;6.30;99.90
64226;DHT22;50545;56.064;26.178;2023-06-04T01:03:10;6.30;99.90
64226;DHT22;50545;56.064;26.178;2023-06-04T01:05:47;6.30;99.90
64226;DHT22;50545;56.064;26.178;2023-06-04T01:08:15;6.20;99.90
64226;DHT22;50545;56.064;26.178;2023-06-04T01:10:55;6.20;99.90
64226;DHT22;50545;56.064;26.178;2023-06-04T01:13:25;6.20;99.90
64226;DHT22;50545;56.064;26.178;2023-06-04T01:15:52;6.20;99.90
64226;DHT22;50545;56.064;26.178;2023-06-04T01:18:24;6.20;99.90
64226;DHT22;50545;56.064;26.178;2023-06-04T01:21:02;6.20;99.90
64226;DHT22;50545;56.064;26.178;2023-06-04T01:23:50;6.20;99.90
64226;DHT22;50545;56.064;26.178;2023-06-04T01:26:31;6.20;99.90
64226;DHT22;50545;56.064;26.178;2023-06-04T01:28:59;6.20;99.90
64226;DHT22;50545;56.064;26.178;2023-06-04T01:31:28;6.20;99.90
64226;DHT22;50545;56.064;26.178;2023-06-04T01:34:00;6.10;99.90
64226;DHT22;50545;56.064;26.178;2023-06-04T01:36:27;6.10;99.90
64226;DHT22;50545;56.064;26.178;2023-06-04T01:38:54;6.10;99.90
64226;DHT22;50545;56.064;26.178;2023-06-04T01:41:22;6.10;99.90
64226;DHT22;50545;56.064;26.178;2023-06-04T01:43:50;6.10;99.90
64226;DHT22;50545;56.064;26.178;2023-06-04T01:46:17;6.10;99.90
64226;DHT22;50545;56.064;26.178;2023-06-04T01:48:44;6.10;99.90
64226;DHT22;50545;56.064;26.178;2023-06-04T01:51:15;6.10;99.90
64226;DHT22;50545;56.064;26.178;2023-06-04T01:53:43;6.10;99.90
64226;DHT22;50545;56.064;26.178;2023-06-04T01:56:10;6.10;99.90
64226;DHT22;50545;56.064;26.178;2023-06-04T01:58:38;6.10;99.90
64226;DHT22;50545;56.064;26.178;2023-06-04T02:01:05;6.00;99.90
64226;DHT22;50545;56.064;26.178;2023-06-04T02:03:34;6.00;99.90
64226;DHT22;50545;56.064;26.178;2023-06-04T02:06:04;6.00;99.90
64226;DHT22;50545;56.064;26.178;2023-06-04T02:08:35;6.00;99.90
64226;DHT22;50545;56.064;26.178;2023-06-04T02:11:02;6.10;99.90
64226;DHT22;50545;56.064;26.178;2023-06-04T02:13:30;6.10;99.90
64226;DHT22;50545;56.064;26.178;2023-06-04T02:15:57;6.10;99.90
64226;DHT22;50545;56.064;26.178;2023-06-04T02:18:24;6.10;99.90
64226;DHT22;50545;56.064;26.178;2023-06-04T02:20:52;6.10;99.90
64226;DHT22;50545;56.064;26.178;2023-06-04T02:23:19;6.10;99.90
64226;DHT22;50545;56.064;26.178;2023-06-04T02:25:48;6.20;99.90
64226;DHT22;50545;56.064;26.178;2023-06-04T02:28:17;6.20;99.90
64226;DHT22;50545;56.064;26.178;2023-06-04T02:30:44;6.20;99.90
64226;DHT22;50545;56.064;26.178;2023-06-04T02:33:13;6.30;99.90
64226;DHT22;50545;56.064;26.178;2023-06-04T02:35:41;6.30;99.90
64226;DHT22;50545;56.064;26.178;2023-06-04T02:38:08;6.30;99.90
64226;DHT22;50545;56.064;26.178;2023-06-04T02:40:35;6.40;99.90
64226;DHT22;50545;56.064;26.178;2023-06-04T02:43:03;6.40;99.90
64226;DHT22;50545;56.064;26.178;2023-06-04T02:45:30;6.40;99.90
64226;DHT22;50545;56.064;26.178;2023-06-04T02:47:58;6.50;99.90
64226;DHT22;50545;56.064;26.178;2023-06-04T02:50:25;6.60;99.90
64226;DHT22;50545;56.064;26.178;2023-06-04T02:52:52;6.60;99.90
64226;DHT22;50545;56.064;26.178;2023-06-04T02:55:20;6.60;99.90
64226;DHT22;50545;56.064;26.178;2023-06-04T02:57:47;6.70;99.90
64226;DHT22;50545;56.064;26.178;2023-06-04T03:00:15;6.70;99.90
64226;DHT22;50545;56.064;26.178;2023-06-04T03:02:47;6.80;99.90
64226;DHT22;50545;56.064;26.178;2023-06-04T03:05:16;6.80;99.90
64226;DHT22;50545;56.064;26.178;2023-06-04T03:07:46;6.80;99.90
64226;DHT22;50545;56.064;26.178;2023-06-04T03:10:14;6.80;99.90
64226;DHT22;50545;56.064;26.178;2023-06-04T03:12:43;6.90;99.90
64226;DHT22;50545;56.064;26.178;2023-06-04T03:15:10;6.90;99.90
64226;DHT22;50545;56.064;26.178;2023-06-04T03:17:38;7.00;99.90
64226;DHT22;50545;56.064;26.178;2023-06-04T03:20:06;7.00;99.90
64226;DHT22;50545;56.064;26.178;2023-06-04T03:22:34;7.10;99.90
64226;DHT22;50545;56.064;26.178;2023-06-04T03:25:03;7.20;99.90
64226;DHT22;50545;56.064;26.178;2023-06-04T03:27:32;7.20;99.90
64226;DHT22;50545;56.064;26.178;2023-06-04T03:29:59;7.30;99.90
64226;DHT22;50545;56.064;26.178;2023-06-04T03:32:27;7.40;99.90
64226;DHT22;50545;56.064;26.178;2023-06-04T03:34:54;7.50;99.90
64226;DHT22;50545;56.064;26.178;2023-06-04T03:37:21;7.50;99.90
64226;DHT22;50545;56.064;26.178;2023-06-04T03:39:49;7.60;99.60
64226;DHT22;50545;56.064;26.178;2023-06-04T03:42:16;7.70;99.70
64226;DHT22;50545;56.064;26.178;2023-06-04T03:44:43;7.70;99.40
64226;DHT22;50545;56.064;26.178;2023-06-04T03:47:10;7.80;99.30
64226;DHT22;50545;56.064;26.178;2023-06-04T03:49:38;7.80;98.70
64226;DHT22;50545;56.064;26.178;2023-06-04T03:52:05;7.80;98.90
64226;DHT22;50545;56.064;26.178;2023-06-04T03:54:33;7.90;99.00
64226;DHT22;50545;56.064;26.178;2023-06-04T03:57:00;8.00;98.60
64226;DHT22;50545;56.064;26.178;2023-06-04T03:59:28;8.10;98.70
64226;DHT22;50545;56.064;26.178;2023-06-04T04:01:56;8.10;98.20
64226;DHT22;50545;56.064;26.178;2023-06-04T04:04:23;8.10;98.10
64226;DHT22;50545;56.064;26.178;2023-06-04T04:06:50;8.20;98.10
64226;DHT22;50545;56.064;26.178;2023-06-04T04:09:18;8.20;97.80
64226;DHT22;50545;56.064;26.178;2023-06-04T04:11:45;8.20;97.90
64226;DHT22;50545;56.064;26.178;2023-06-04T04:14:12;8.20;97.80
64226;DHT22;50545;56.064;26.178;2023-06-04T04:16:40;8.30;97.70
64226;DHT22;50545;56.064;26.178;2023-06-04T04:19:07;8.30;97.70
64226;DHT22;50545;56.064;26.178;2023-06-04T04:21:37;8.30;97.60
64226;DHT22;50545;56.064;26.178;2023-06-04T04:24:05;8.40;97.70
64226;DHT22;50545;56.064;26.178;2023-06-04T04:26:32;8.50;97.40
64226;DHT22;50545;56.064;26.178;2023-06-04T04:29:01;8.50;97.40
64226;DHT22;50545;56.064;26.178;2023-06-04T04:31:28;8.60;96.90
64226;DHT22;50545;56.064;26.178;2023-06-04T04:33:56;8.70;97.10
64226;DHT22;50545;56.064;26.178;2023-06-04T04:36:23;8.70;96.90
64226;DHT22;50545;56.064;26.178;2023-06-04T04:38:51;8.80;96.40
64226;DHT22;50545;56.064;26.178;2023-06-04T04:41:21;8.90;96.50
64226;DHT22;50545;56.064;26.178;2023-06-04T04:43:53;8.90;96.30
64226;DHT22;50545;56.064;26.178;2023-06-04T04:46:20;9.00;96.50
64226;DHT22;50545;56.064;26.178;2023-06-04T04:48:47;9.10;96.00
64226;DHT22;50545;56.064;26.178;2023-06-04T04:51:15;9.20;96.10
64226;DHT22;50545;56.064;26.178;2023-06-04T04:53:42;9.30;96.50
64226;DHT22;50545;56.064;26.178;2023-06-04T04:56:09;9.40;94.80
64226;DHT22;50545;56.064;26.178;2023-06-04T04:58:37;9.60;94.00
64226;DHT22;50545;56.064;26.178;2023-06-04T05:01:04;9.70;94.30
64226;DHT22;50545;56.064;26.178;2023-06-04T05:03:32;9.80;93.80
64226;DHT22;50545;56.064;26.178;2023-06-04T05:05:59;10.00;93.40
64226;DHT22;50545;56.064;26.178;2023-06-04T05:08:27;10.10;92.50
64226;DHT22;50545;56.064;26.178;2023-06-04T05:10:54;10.20;91.70
64226;DHT22;50545;56.064;26.178;2023-06-04T05:13:21;10.30;91.90
64226;DHT22;50545;56.064;26.178;2023-06-04T05:15:50;10.30;91.40
64226;DHT22;50545;56.064;26.178;2023-06-04T05:18:20;10.40;91.90
64226;DHT22;50545;56.064;26.178;2023-06-04T05:20:47;10.30;91.80
64226;DHT22;50545;56.064;26.178;2023-06-04T05:23:15;10.30;90.70
64226;DHT22;50545;56.064;26.178;2023-06-04T05:25:42;10.40;91.40
64226;DHT22;50545;56.064;26.178;2023-06-04T05:28:09;10.40;90.80
64226;DHT22;50545;56.064;26.178;2023-06-04T05:30:37;10.40;90.40
64226;DHT22;50545;56.064;26.178;2023-06-04T05:33:08;10.50;90.10
64226;DHT22;50545;56.064;26.178;2023-06-04T05:35:47;10.50;89.90
64226;DHT22;50545;56.064;26.178;2023-06-04T05:38:27;10.50;90.30
64226;DHT22;50545;56.064;26.178;2023-06-04T05:40:54;10.50;90.40
64226;DHT22;50545;56.064;26.178;2023-06-04T05:43:22;10.50;88.90
64226;DHT22;50545;56.064;26.178;2023-06-04T05:45:50;10.60;90.20
64226;DHT22;50545;56.064;26.178;2023-06-04T05:48:19;10.70;91.30
64226;DHT22;50545;56.064;26.178;2023-06-04T05:50:46;10.80;89.20
64226;DHT22;50545;56.064;26.178;2023-06-04T05:53:14;10.80;89.20
64226;DHT22;50545;56.064;26.178;2023-06-04T05:55:42;11.00;90.50
64226;DHT22;50545;56.064;26.178;2023-06-04T05:58:09;11.10;89.00
64226;DHT22;50545;56.064;26.178;2023-06-04T06:00:36;11.30;89.00
64226;DHT22;50545;56.064;26.178;2023-06-04T06:03:04;11.40;89.10
64226;DHT22;50545;56.064;26.178;2023-06-04T06:05:33;11.60;85.20
64226;DHT22;50545;56.064;26.178;2023-06-04T06:08:01;11.60;83.60
64226;DHT22;50545;56.064;26.178;2023-06-04T06:10:29;11.60;82.80
64226;DHT22;50545;56.064;26.178;2023-06-04T06:12:56;11.60;82.00
64226;DHT22;50545;56.064;26.178;2023-06-04T06:15:24;11.60;80.70
64226;DHT22;50545;56.064;26.178;2023-06-04T06:17:51;11.60;82.50
64226;DHT22;50545;56.064;26.178;2023-06-04T06:20:19;11.70;82.10
64226;DHT22;50545;56.064;26.178;2023-06-04T06:22:46;11.90;83.40
64226;DHT22;50545;56.064;26.178;2023-06-04T06:25:14;11.90;80.50
64226;DHT22;50545;56.064;26.178;2023-06-04T06:27:42;11.90;78.90
64226;DHT22;50545;56.064;26.178;2023-06-04T06:30:10;12.00;80.10
64226;DHT22;50545;56.064;26.178;2023-06-04T06:32:37;12.00;79.60
64226;DHT22;50545;56.064;26.178;2023-06-04T06:35:05;12.10;82.70
64226;DHT22;50545;56.064;26.178;2023-06-04T06:37:32;12.20;81.70
64226;DHT22;50545;56.064;26.178;2023-06-04T06:40:00;12.30;78.40
64226;DHT22;50545;56.064;26.178;2023-06-04T06:42:32;12.40;78.40
64226;DHT22;50545;56.064;26.178;2023-06-04T06:44:59;12.50;80.90
64226;DHT22;50545;56.064;26.178;2023-06-04T06:47:27;12.60;80.90
64226;DHT22;50545;56.064;26.178;2023-06-04T06:49:54;12.70;79.90
64226;DHT22;50545;56.064;26.178;2023-06-04T06:52:21;12.80;78.50
64226;DHT22;50545;56.064;26.178;2023-06-04T06:54:49;12.90;77.00
64226;DHT22;50545;56.064;26.178;2023-06-04T06:57:16;13.00;74.50
64226;DHT22;50545;56.064;26.178;2023-06-04T06:59:44;13.00;72.20
64226;DHT22;50545;56.064;26.178;2023-06-04T07:02:11;13.00;72.60
64226;DHT22;50545;56.064;26.178;2023-06-04T07:04:38;13.10;74.30
64226;DHT22;50545;56.064;26.178;2023-06-04T07:07:06;13.30;72.60
64226;DHT22;50545;56.064;26.178;2023-06-04T07:09:34;13.40;73.80
64226;DHT22;50545;56.064;26.178;2023-06-04T07:12:01;13.50;75.20
64226;DHT22;50545;56.064;26.178;2023-06-04T07:14:29;13.50;71.80
64226;DHT22;50545;56.064;26.178;2023-06-04T07:16:56;13.50;72.00
64226;DHT22;50545;56.064;26.178;2023-06-04T07:19:23;13.50;73.10
64226;DHT22;50545;56.064;26.178;2023-06-04T07:21:53;13.70;74.20
64226;DHT22;50545;56.064;26.178;2023-06-04T07:24:21;13.80;74.60
64226;DHT22;50545;56.064;26.178;2023-06-04T07:26:48;13.90;70.60
64226;DHT22;50545;56.064;26.178;2023-06-04T07:29:15;13.80;70.80
64226;DHT22;50545;56.064;26.178;2023-06-04T07:31:43;13.80;75.30
64226;DHT22;50545;56.064;26.178;2023-06-04T07:34:10;13.90;70.20
64226;DHT22;50545;56.064;26.178;2023-06-04T07:36:38;13.80;71.00
64226;DHT22;50545;56.064;26.178;2023-06-04T07:39:05;13.80;72.30
64226;DHT22;50545;56.064;26.178;2023-06-04T07:41:32;13.80;73.90
64226;DHT22;50545;56.064;26.178;2023-06-04T07:44:00;13.70;71.80
64226;DHT22;50545;56.064;26.178;2023-06-04T07:46:27;13.70;71.20
64226;DHT22;50545;56.064;26.178;2023-06-04T07:48:54;13.90;68.90
64226;DHT22;50545;56.064;26.178;2023-06-04T07:51:22;13.90;69.50
64226;DHT22;50545;56.064;26.178;2023-06-04T07:53:49;14.10;71.10
64226;DHT22;50545;56.064;26.178;2023-06-04T07:56:17;14.30;73.20
64226;DHT22;50545;56.064;26.178;2023-06-04T07:58:45;14.40;71.90
64226;DHT22;50545;56.064;26.178;2023-06-04T08:01:12;14.80;70.90
64226;DHT22;50545;56.064;26.178;2023-06-04T08:03:39;15.00;69.40
64226;DHT22;50545;56.064;26.178;2023-06-04T08:06:09;15.20;69.50
64226;DHT22;50545;56.064;26.178;2023-06-04T08:08:37;15.50;71.40
64226;DHT22;50545;56.064;26.178;2023-06-04T08:11:04;15.60;68.10
64226;DHT22;50545;56.064;26.178;2023-06-04T08:13:32;15.60;65.60
64226;DHT22;50545;56.064;26.178;2023-06-04T08:15:59;15.30;64.70
64226;DHT22;50545;56.064;26.178;2023-06-04T08:18:27;15.10;65.90
64226;DHT22;50545;56.064;26.178;2023-06-04T08:20:54;14.90;64.90
64226;DHT22;50545;56.064;26.178;2023-06-04T08:23:22;14.90;67.50
64226;DHT22;50545;56.064;26.178;2023-06-04T08:25:49;14.90;67.70
64226;DHT22;50545;56.064;26.178;2023-06-04T08:28:17;14.80;67.10
64226;DHT22;50545;56.064;26.178;2023-06-04T08:30:46;14.80;67.40
64226;DHT22;50545;56.064;26.178;2023-06-04T08:33:13;14.90;67.80
64226;DHT22;50545;56.064;26.178;2023-06-04T08:35:40;15.00;69.50
64226;DHT22;50545;56.064;26.178;2023-06-04T08:38:08;15.20;67.30
64226;DHT22;50545;56.064;26.178;2023-06-04T08:40:35;15.30;65.10
64226;DHT22;50545;56.064;26.178;2023-06-04T08:43:04;15.40;66.20
64226;DHT22;50545;56.064;26.178;2023-06-04T08:45:33;15.50;65.60
64226;DHT22;50545;56.064;26.178;2023-06-04T08:48:00;15.60;65.50
64226;DHT22;50545;56.064;26.178;2023-06-04T08:50:28;15.70;63.10
64226;DHT22;50545;56.064;26.178;2023-06-04T08:52:56;15.90;65.10
64226;DHT22;50545;56.064;26.178;2023-06-04T08:55:23;16.20;65.40
64226;DHT22;50545;56.064;26.178;2023-06-04T08:57:50;16.30;63.30
64226;DHT22;50545;56.064;26.178;2023-06-04T09:00:19;16.20;62.60
64226;DHT22;50545;56.064;26.178;2023-06-04T09:02:47;16.20;63.60
64226;DHT22;50545;56.064;26.178;2023-06-04T09:05:24;15.90;60.40
64226;DHT22;50545;56.064;26.178;2023-06-04T09:07:53;15.70;63.80
64226;DHT22;50545;56.064;26.178;2023-06-04T09:10:24;15.70;63.00
64226;DHT22;50545;56.064;26.178;2023-06-04T09:12:54;15.60;61.80
64226;DHT22;50545;56.064;26.178;2023-06-04T09:15:23;15.50;62.40
64226;DHT22;50545;56.064;26.178;2023-06-04T09:17:51;15.40;61.50
64226;DHT22;50545;56.064;26.178;2023-06-04T09:20:22;15.50;60.40
64226;DHT22;50545;56.064;26.178;2023-06-04T09:22:50;15.60;62.40
64226;DHT22;50545;56.064;26.178;2023-06-04T09:25:25;15.70;61.70
64226;DHT22;50545;56.064;26.178;2023-06-04T09:27:54;15.80;59.80
64226;DHT22;50545;56.064;26.178;2023-06-04T09:30:24;15.80;59.00
64226;DHT22;50545;56.064;26.178;2023-06-04T09:32:51;15.90;63.20
64226;DHT22;50545;56.064;26.178;2023-06-04T09:35:20;16.00;59.90
64226;DHT22;50545;56.064;26.178;2023-06-04T09:37:57;16.00;61.80
64226;DHT22;50545;56.064;26.178;2023-06-04T09:40:34;16.10;60.30
64226;DHT22;50545;56.064;26.178;2023-06-04T09:43:01;16.10;60.10
64226;DHT22;50545;56.064;26.178;2023-06-04T09:45:33;16.10;63.00
64226;DHT22;50545;56.064;26.178;2023-06-04T09:48:03;16.20;61.10
64226;DHT22;50545;56.064;26.178;2023-06-04T09:50:36;16.00;61.20
64226;DHT22;50545;56.064;26.178;2023-06-04T09:53:15;16.00;62.20
64226;DHT22;50545;56.064;26.178;2023-06-04T09:55:43;16.00;61.40
64226;DHT22;50545;56.064;26.178;2023-06-04T09:58:11;15.90;60.30
64226;DHT22;50545;56.064;26.178;2023-06-04T10:00:40;15.80;60.20
64226;DHT22;50545;56.064;26.178;2023-06-04T10:03:10;15.80;60.60
64226;DHT22;50545;56.064;26.178;2023-06-04T10:05:42;15.80;62.10
64226;DHT22;50545;56.064;26.178;2023-06-04T10:08:10;15.70;58.90
64226;DHT22;50545;56.064;26.178;2023-06-04T10:10:40;15.70;62.40
64226;DHT22;50545;56.064;26.178;2023-06-04T10:13:14;15.70;61.40
64226;DHT22;50545;56.064;26.178;2023-06-04T10:15:47;15.70;62.30
64226;DHT22;50545;56.064;26.178;2023-06-04T10:18:15;15.60;59.90
64226;DHT22;50545;56.064;26.178;2023-06-04T10:20:43;15.60;61.80
64226;DHT22;50545;56.064;26.178;2023-06-04T10:23:11;15.60;58.70
64226;DHT22;50545;56.064;26.178;2023-06-04T10:25:39;15.70;61.10
64226;DHT22;50545;56.064;26.178;2023-06-04T10:28:08;15.90;61.20
64226;DHT22;50545;56.064;26.178;2023-06-04T10:30:35;16.10;58.20
64226;DHT22;50545;56.064;26.178;2023-06-04T10:33:03;16.30;60.40
64226;DHT22;50545;56.064;26.178;2023-06-04T10:35:35;16.50;57.60
64226;DHT22;50545;56.064;26.178;2023-06-04T10:38:14;16.70;59.20
64226;DHT22;50545;56.064;26.178;2023-06-04T10:40:43;16.60;53.90
64226;DHT22;50545;56.064;26.178;2023-06-04T10:43:12;16.60;54.20
64226;DHT22;50545;56.064;26.178;2023-06-04T10:45:40;16.70;54.30
64226;DHT22;50545;56.064;26.178;2023-06-04T10:48:10;16.90;52.90
64226;DHT22;50545;56.064;26.178;2023-06-04T10:50:51;17.00;53.40
64226;DHT22;50545;56.064;26.178;2023-06-04T10:53:19;17.00;52.70
64226;DHT22;50545;56.064;26.178;2023-06-04T10:55:48;17.10;54.00
64226;DHT22;50545;56.064;26.178;2023-06-04T10:58:15;17.00;52.90
64226;DHT22;50545;56.064;26.178;2023-06-04T11:00:46;17.10;53.50
64226;DHT22;50545;56.064;26.178;2023-06-04T11:03:16;16.90;49.90
64226;DHT22;50545;56.064;26.178;2023-06-04T11:05:45;16.90;53.90
64226;DHT22;50545;56.064;26.178;2023-06-04T11:08:14;16.90;51.80
64226;DHT22;50545;56.064;26.178;2023-06-04T11:10:43;16.80;51.50
64226;DHT22;50545;56.064;26.178;2023-06-04T11:13:11;16.60;52.90
64226;DHT22;50545;56.064;26.178;2023-06-04T11:15:43;16.60;53.10
64226;DHT22;50545;56.064;26.178;2023-06-04T11:18:16;16.60;51.50
64226;DHT22;50545;56.064;26.178;2023-06-04T11:20:47;16.60;51.40
64226;DHT22;50545;56.064;26.178;2023-06-04T11:23:16;16.60;51.90
64226;DHT22;50545;56.064;26.178;2023-06-04T11:25:44;16.40;52.00
64226;DHT22;50545;56.064;26.178;2023-06-04T11:28:16;16.20;54.50
64226;DHT22;50545;56.064;26.178;2023-06-04T11:31:02;16.20;55.60
64226;DHT22;50545;56.064;26.178;2023-06-04T11:33:41;16.20;55.10
64226;DHT22;50545;56.064;26.178;2023-06-04T11:36:08;16.10;54.60
64226;DHT22;50545;56.064;26.178;2023-06-04T11:38:35;15.90;56.70
64226;DHT22;50545;56.064;26.178;2023-06-04T11:41:03;15.60;57.90
64226;DHT22;50545;56.064;26.178;2023-06-04T11:43:32;15.30;58.60
64226;DHT22;50545;56.064;26.178;2023-06-04T11:46:05;15.10;58.90
64226;DHT22;50545;56.064;26.178;2023-06-04T11:48:37;14.90;61.40
64226;DHT22;50545;56.064;26.178;2023-06-04T11:51:07;14.80;60.20
64226;DHT22;50545;56.064;26.178;2023-06-04T11:53:38;14.70;61.60
64226;DHT22;50545;56.064;26.178;2023-06-04T11:56:05;14.80;62.30
64226;DHT22;50545;56.064;26.178;2023-06-04T11:58:33;14.80;61.20
64226;DHT22;50545;56.064;26.178;2023-06-04T12:01:00;14.80;60.10
64226;DHT22;50545;56.064;26.178;2023-06-04T12:06:19;14.80;62.80
64226;DHT22;50545;56.064;26.178;2023-06-04T12:08:49;14.70;62.70
64226;DHT22;50545;56.064;26.178;2023-06-04T12:11:35;14.70;63.50
64226;DHT22;50545;56.064;26.178;2023-06-04T12:14:06;14.40;62.10
64226;DHT22;50545;56.064;26.178;2023-06-04T12:16:34;14.30;63.90
64226;DHT22;50545;56.064;26.178;2023-06-04T12:19:08;14.10;63.60
64226;DHT22;50545;56.064;26.178;2023-06-04T12:21:37;13.90;65.30
64226;DHT22;50545;56.064;26.178;2023-06-04T12:24:08;13.70;67.30
64226;DHT22;50545;56.064;26.178;2023-06-04T12:26:37;13.60;68.30
64226;DHT22;50545;56.064;26.178;2023-06-04T12:29:13;13.60;69.00
64226;DHT22;50545;56.064;26.178;2023-06-04T12:31:44;13.60;70.70
64226;DHT22;50545;56.064;26.178;2023-06-04T12:34:15;13.60;70.90
64226;DHT22;50545;56.064;26.178;2023-06-04T12:36:44;13.60;75.00
64226;DHT22;50545;56.064;26.178;2023-06-04T12:39:12;13.70;73.30
64226;DHT22;50545;56.064;26.178;2023-06-04T12:41:45;13.80;73.60
64226;DHT22;50545;56.064;26.178;2023-06-04T12:44:12;14.00;73.50
64226;DHT22;50545;56.064;26.178;2023-06-04T12:46:40;14.20;76.30
64226;DHT22;50545;56.064;26.178;2023-06-04T12:49:07;14.40;72.40
64226;DHT22;50545;56.064;26.178;2023-06-04T12:51:35;14.50;73.00
64226;DHT22;50545;56.064;26.178;2023-06-04T12:54:03;14.70;73.80
64226;DHT22;50545;56.064;26.178;2023-06-04T12:56:31;14.90;73.00
64226;DHT22;50545;56.064;26.178;2023-06-04T12:58:59;14.90;71.90
64226;DHT22;50545;56.064;26.178;2023-06-04T13:01:26;15.20;71.90
64226;DHT22;50545;56.064;26.178;2023-06-04T13:03:54;15.30;69.80
64226;DHT22;50545;56.064;26.178;2023-06-04T13:06:22;15.30;68.60
64226;DHT22;50545;56.064;26.178;2023-06-04T13:08:50;15.30;70.30
64226;DHT22;50545;56.064;26.178;2023-06-04T13:11:17;15.50;70.70
64226;DHT22;50545;56.064;26.178;2023-06-04T13:13:44;15.70;70.20
64226;DHT22;50545;56.064;26.178;2023-06-04T13:16:12;15.80;67.40
64226;DHT22;50545;56.064;26.178;2023-06-04T13:18:39;15.90;67.60
64226;DHT22;50545;56.064;26.178;2023-06-04T13:21:07;15.90;67.20
64226;DHT22;50545;56.064;26.178;2023-06-04T13:23:34;15.90;64.50
64226;DHT22;50545;56.064;26.178;2023-06-04T13:26:19;15.90;64.10
64226;DHT22;50545;56.064;26.178;2023-06-04T13:28:47;15.80;62.50
64226;DHT22;50545;56.064;26.178;2023-06-04T13:31:14;15.80;64.10
64226;DHT22;50545;56.064;26.178;2023-06-04T13:33:42;15.80;62.80
64226;DHT22;50545;56.064;26.178;2023-06-04T13:36:10;15.80;62.40
64226;DHT22;50545;56.064;26.178;2023-06-04T13:38:37;15.80;62.30
64226;DHT22;50545;56.064;26.178;2023-06-04T13:41:04;15.80;61.50
64226;DHT22;50545;56.064;26.178;2023-06-04T13:43:32;15.90;62.20
64226;DHT22;50545;56.064;26.178;2023-06-04T13:46:00;16.00;62.90
64226;DHT22;50545;56.064;26.178;2023-06-04T13:48:28;16.20;65.10
64226;DHT22;50545;56.064;26.178;2023-06-04T13:50:55;16.40;62.60
64226;DHT22;50545;56.064;26.178;2023-06-04T13:53:22;16.60;61.20
64226;DHT22;50545;56.064;26.178;2023-06-04T13:55:49;16.80;61.90
64226;DHT22;50545;56.064;26.178;2023-06-04T13:58:17;16.90;59.80
64226;DHT22;50545;56.064;26.178;2023-06-04T14:00:44;16.90;60.20
64226;DHT22;50545;56.064;26.178;2023-06-04T14:03:12;16.90;61.60
64226;DHT22;50545;56.064;26.178;2023-06-04T14:05:40;16.80;59.50
64226;DHT22;50545;56.064;26.178;2023-06-04T14:08:07;16.80;62.00
64226;DHT22;50545;56.064;26.178;2023-06-04T14:10:34;16.90;63.10
64226;DHT22;50545;56.064;26.178;2023-06-04T14:13:03;17.00;62.70
64226;DHT22;50545;56.064;26.178;2023-06-04T14:15:30;17.00;61.80
64226;DHT22;50545;56.064;26.178;2023-06-04T14:17:57;16.80;61.00
64226;DHT22;50545;56.064;26.178;2023-06-04T14:20:25;16.70;61.10
64226;DHT22;50545;56.064;26.178;2023-06-04T14:22:52;16.60;60.70
64226;DHT22;50545;56.064;26.178;2023-06-04T14:25:19;16.40;59.30
64226;DHT22;50545;56.064;26.178;2023-06-04T14:27:47;16.30;60.60
64226;DHT22;50545;56.064;26.178;2023-06-04T14:30:14;16.20;61.20
64226;DHT22;50545;56.064;26.178;2023-06-04T14:32:41;16.20;61.80
64226;DHT22;50545;56.064;26.178;2023-06-04T14:35:09;16.40;62.00
64226;DHT22;50545;56.064;26.178;2023-06-04T14:37:36;16.40;60.10
64226;DHT22;50545;56.064;26.178;2023-06-04T14:40:04;16.60;61.90
64226;DHT22;50545;56.064;26.178;2023-06-04T14:42:32;16.70;61.00
64226;DHT22;50545;56.064;26.178;2023-06-04T14:44:59;17.00;62.00
64226;DHT22;50545;56.064;26.178;2023-06-04T14:47:26;17.20;57.80
64226;DHT22;50545;56.064;26.178;2023-06-04T14:49:54;17.00;57.60
64226;DHT22;50545;56.064;26.178;2023-06-04T14:52:21;16.90;59.30
64226;DHT22;50545;56.064;26.178;2023-06-04T14:54:48;16.80;60.00
64226;DHT22;50545;56.064;26.178;2023-06-04T14:57:19;16.80;58.90
64226;DHT22;50545;56.064;26.178;2023-06-04T14:59:48;16.80;59.10
64226;DHT22;50545;56.064;26.178;2023-06-04T15:02:15;16.70;59.60
64226;DHT22;50545;56.064;26.178;2023-06-04T15:04:46;16.50;60.30
64226;DHT22;50545;56.064;26.178;2023-06-04T15:07:13;16.40;60.60
64226;DHT22;50545;56.064;26.178;2023-06-04T15:09:41;16.40;60.30
64226;DHT22;50545;56.064;26.178;2023-06-04T15:12:08;16.30;63.20
64226;DHT22;50545;56.064;26.178;2023-06-04T15:14:35;16.40;61.50
64226;DHT22;50545;56.064;26.178;2023-06-04T15:17:03;16.40;63.70
64226;DHT22;50545;56.064;26.178;2023-06-04T15:19:30;16.50;62.50
64226;DHT22;50545;56.064;26.178;2023-06-04T15:21:57;16.60;63.90
64226;DHT22;50545;56.064;26.178;2023-06-04T15:24:24;16.80;61.60
64226;DHT22;50545;56.064;26.178;2023-06-04T15:26:52;17.20;64.00
64226;DHT22;50545;56.064;26.178;2023-06-04T15:29:19;17.60;60.50
64226;DHT22;50545;56.064;26.178;2023-06-04T15:31:46;17.90;59.20